Lihue Airport Lihue US
ICAO: PHLI
IATA:
Category: Medium
Scheduled Services:

Elevation: 153 ft
TransAlt. 18000 ft.

Airport Communications:
ATIS:127.2
HONOLULU CNTR:126.5
CTAF:118.9
GND:121.9
HONOLULU:122.6
TWR:118.9

PHLI Zoom In..

Runways:

(A) RW 03 length 6500 ft width 150 ft
---- / hdg 34

(B) RW 17 length 6500 ft width 150 ft
---- / hdg 169

(C) RW 21 length 6500 ft width 150 ft
---- / hdg 214

(D) RW 35 length 6500 ft width 150 ft
ILS 110.90 / hdg 349

Location; PHLI
Day. 21 / Time. 23.53 Zulu
* Altimeter: 30.00
* Temperature: 26° c. 78.8°f.
* Wind from: 050° Speed 12 kn.
Dewpoint: 21° c.
Visibility: 10 Statute Miles.
Clouds: Broken 5000 ft.

PHLI 212353Z 05012KT 10SM BKN050 26/21 A3000 RMK AO2 SLP157 60000 T02560206 10267 20222 58025


Wind From 050°
Speed 12 kn.

jpsM music video
CHECK IT OUT

jpsM - It Moves..

 
jpsmedia.com for Web Design  worldairports.se 2018   terms of use